Mount Carmel, Kentucky
Current Conditions -  °F | °C
As of 9:35 AM on Wednesday 22 Oct 2014 (Local Time) from KFGX Reporting Station
Overcast Overcast  
Wind Chill: 42°   Ceiling: 1600
Heat Index: 46°   Visibility: 10mi
Dew Point: 40°   Wind: 6mph
Humidity: 81%   Direction: 360°N
Pressure: 30.28"   Gusts: NA
Location:  38.436°N, 83.6931°W
Report Text: KFGX 221335Z AUTO 36005KT 10SM OVC016 08/05 A3028 RMK AO2 T00750045
Loading
Personal Weather Stations






























Interactive Weather Map
Tropical Storm Tracking
New forecast layout! Learn more

10-Day Weather Forecast

Advertisements
Track Severe Weather on mobile